sensor_id;sensor_type;location;lat;lon;timestamp;temperature;humidity
5415;DHT22;2730;51.512;7.504;2023-04-22T00:02:12;8.90;99.90
5415;DHT22;2730;51.512;7.504;2023-04-22T00:04:41;8.90;99.90
5415;DHT22;2730;51.512;7.504;2023-04-22T00:07:08;8.80;99.90
5415;DHT22;2730;51.512;7.504;2023-04-22T00:09:35;8.80;99.90
5415;DHT22;2730;51.512;7.504;2023-04-22T00:12:03;8.70;99.90
5415;DHT22;2730;51.512;7.504;2023-04-22T00:14:30;8.60;99.90
5415;DHT22;2730;51.512;7.504;2023-04-22T00:16:57;8.60;99.90
5415;DHT22;2730;51.512;7.504;2023-04-22T00:19:24;8.60;99.90
5415;DHT22;2730;51.512;7.504;2023-04-22T00:21:50;8.60;99.90
5415;DHT22;2730;51.512;7.504;2023-04-22T00:24:17;8.50;99.90
5415;DHT22;2730;51.512;7.504;2023-04-22T00:26:44;8.50;99.90
5415;DHT22;2730;51.512;7.504;2023-04-22T00:29:12;8.60;99.90
5415;DHT22;2730;51.512;7.504;2023-04-22T00:31:39;8.60;99.90
5415;DHT22;2730;51.512;7.504;2023-04-22T00:34:05;8.60;99.90
5415;DHT22;2730;51.512;7.504;2023-04-22T00:36:32;8.60;99.90
5415;DHT22;2730;51.512;7.504;2023-04-22T00:38:59;8.60;99.90
5415;DHT22;2730;51.512;7.504;2023-04-22T00:41:27;8.50;99.90
5415;DHT22;2730;51.512;7.504;2023-04-22T00:43:55;8.50;99.90
5415;DHT22;2730;51.512;7.504;2023-04-22T00:46:24;8.40;99.90
5415;DHT22;2730;51.512;7.504;2023-04-22T00:48:51;8.30;99.90
5415;DHT22;2730;51.512;7.504;2023-04-22T00:51:19;8.30;99.90
5415;DHT22;2730;51.512;7.504;2023-04-22T00:53:46;8.30;99.90
5415;DHT22;2730;51.512;7.504;2023-04-22T00:56:13;8.30;99.90
5415;DHT22;2730;51.512;7.504;2023-04-22T00:58:40;8.20;99.90
5415;DHT22;2730;51.512;7.504;2023-04-22T01:01:07;8.20;99.90
5415;DHT22;2730;51.512;7.504;2023-04-22T01:03:37;8.30;99.90
5415;DHT22;2730;51.512;7.504;2023-04-22T01:06:04;8.30;99.90
5415;DHT22;2730;51.512;7.504;2023-04-22T01:08:31;8.40;99.90
5415;DHT22;2730;51.512;7.504;2023-04-22T01:10:58;8.40;99.90
5415;DHT22;2730;51.512;7.504;2023-04-22T01:13:25;8.40;99.90
5415;DHT22;2730;51.512;7.504;2023-04-22T01:15:52;8.40;99.90
5415;DHT22;2730;51.512;7.504;2023-04-22T01:18:20;8.40;99.90
5415;DHT22;2730;51.512;7.504;2023-04-22T01:20:49;8.40;99.90
5415;DHT22;2730;51.512;7.504;2023-04-22T01:23:18;8.40;99.90
5415;DHT22;2730;51.512;7.504;2023-04-22T01:25:45;8.50;99.90
5415;DHT22;2730;51.512;7.504;2023-04-22T01:28:12;8.50;99.90
5415;DHT22;2730;51.512;7.504;2023-04-22T01:30:40;8.50;99.90
5415;DHT22;2730;51.512;7.504;2023-04-22T01:33:08;8.50;99.90
5415;DHT22;2730;51.512;7.504;2023-04-22T01:35:34;8.50;99.90
5415;DHT22;2730;51.512;7.504;2023-04-22T01:38:02;8.60;99.90
5415;DHT22;2730;51.512;7.504;2023-04-22T01:40:31;8.60;99.90
5415;DHT22;2730;51.512;7.504;2023-04-22T01:42:58;8.50;99.90
5415;DHT22;2730;51.512;7.504;2023-04-22T01:45:25;8.50;99.90
5415;DHT22;2730;51.512;7.504;2023-04-22T01:47:52;8.50;99.90
5415;DHT22;2730;51.512;7.504;2023-04-22T01:50:19;8.50;99.90
5415;DHT22;2730;51.512;7.504;2023-04-22T01:52:46;8.50;99.90
5415;DHT22;2730;51.512;7.504;2023-04-22T01:55:12;8.60;99.90
5415;DHT22;2730;51.512;7.504;2023-04-22T01:57:41;8.60;99.90
5415;DHT22;2730;51.512;7.504;2023-04-22T02:00:09;8.60;99.90
5415;DHT22;2730;51.512;7.504;2023-04-22T02:02:36;8.60;99.90
5415;DHT22;2730;51.512;7.504;2023-04-22T02:05:04;8.70;99.90
5415;DHT22;2730;51.512;7.504;2023-04-22T02:07:31;8.70;99.90
5415;DHT22;2730;51.512;7.504;2023-04-22T02:09:57;8.70;99.90
5415;DHT22;2730;51.512;7.504;2023-04-22T02:12:25;8.80;99.90
5415;DHT22;2730;51.512;7.504;2023-04-22T02:14:53;8.80;99.90
5415;DHT22;2730;51.512;7.504;2023-04-22T02:17:20;8.90;99.90
5415;DHT22;2730;51.512;7.504;2023-04-22T02:19:47;8.90;99.90
5415;DHT22;2730;51.512;7.504;2023-04-22T02:22:14;8.90;99.90
5415;DHT22;2730;51.512;7.504;2023-04-22T02:24:41;8.90;99.90
5415;DHT22;2730;51.512;7.504;2023-04-22T02:27:08;9.00;99.90
5415;DHT22;2730;51.512;7.504;2023-04-22T02:29:35;9.00;99.90
5415;DHT22;2730;51.512;7.504;2023-04-22T02:32:03;9.00;99.90
5415;DHT22;2730;51.512;7.504;2023-04-22T02:34:30;9.10;99.90
5415;DHT22;2730;51.512;7.504;2023-04-22T02:36:56;9.10;99.90
5415;DHT22;2730;51.512;7.504;2023-04-22T02:39:24;9.10;99.90
5415;DHT22;2730;51.512;7.504;2023-04-22T02:41:51;9.10;99.90
5415;DHT22;2730;51.512;7.504;2023-04-22T02:44:17;9.10;99.90
5415;DHT22;2730;51.512;7.504;2023-04-22T02:46:44;9.10;99.90
5415;DHT22;2730;51.512;7.504;2023-04-22T02:49:12;9.10;99.90
5415;DHT22;2730;51.512;7.504;2023-04-22T02:51:39;9.10;99.90
5415;DHT22;2730;51.512;7.504;2023-04-22T02:54:05;9.10;99.90
5415;DHT22;2730;51.512;7.504;2023-04-22T02:56:32;9.10;99.90
5415;DHT22;2730;51.512;7.504;2023-04-22T02:58:59;9.10;99.90
5415;DHT22;2730;51.512;7.504;2023-04-22T03:01:26;9.10;99.90
5415;DHT22;2730;51.512;7.504;2023-04-22T03:03:52;9.20;99.90
5415;DHT22;2730;51.512;7.504;2023-04-22T03:06:21;9.20;99.90
5415;DHT22;2730;51.512;7.504;2023-04-22T03:08:47;9.20;99.90
5415;DHT22;2730;51.512;7.504;2023-04-22T03:11:14;9.20;99.90
5415;DHT22;2730;51.512;7.504;2023-04-22T03:13:41;9.20;99.90
5415;DHT22;2730;51.512;7.504;2023-04-22T03:16:08;9.20;99.90
5415;DHT22;2730;51.512;7.504;2023-04-22T03:18:35;9.20;99.90
5415;DHT22;2730;51.512;7.504;2023-04-22T03:21:02;9.20;99.90
5415;DHT22;2730;51.512;7.504;2023-04-22T03:23:30;9.30;99.90
5415;DHT22;2730;51.512;7.504;2023-04-22T03:25:57;9.30;99.90
5415;DHT22;2730;51.512;7.504;2023-04-22T03:28:23;9.30;99.90
5415;DHT22;2730;51.512;7.504;2023-04-22T03:30:50;9.20;99.90
5415;DHT22;2730;51.512;7.504;2023-04-22T03:33:17;9.20;99.90
5415;DHT22;2730;51.512;7.504;2023-04-22T03:35:46;9.30;99.90
5415;DHT22;2730;51.512;7.504;2023-04-22T03:38:13;9.20;99.90
5415;DHT22;2730;51.512;7.504;2023-04-22T03:40:41;9.30;99.90
5415;DHT22;2730;51.512;7.504;2023-04-22T03:43:08;9.30;99.90
5415;DHT22;2730;51.512;7.504;2023-04-22T03:45:35;9.30;99.90
5415;DHT22;2730;51.512;7.504;2023-04-22T03:48:02;9.30;99.90
5415;DHT22;2730;51.512;7.504;2023-04-22T03:50:29;9.20;99.90
5415;DHT22;2730;51.512;7.504;2023-04-22T03:52:56;9.20;99.90
5415;DHT22;2730;51.512;7.504;2023-04-22T03:55:22;9.20;99.90
5415;DHT22;2730;51.512;7.504;2023-04-22T03:57:51;9.20;99.90
5415;DHT22;2730;51.512;7.504;2023-04-22T04:00:17;9.20;99.90
5415;DHT22;2730;51.512;7.504;2023-04-22T04:02:44;9.20;99.90
5415;DHT22;2730;51.512;7.504;2023-04-22T04:05:11;9.30;99.90
5415;DHT22;2730;51.512;7.504;2023-04-22T04:07:38;9.30;99.90
5415;DHT22;2730;51.512;7.504;2023-04-22T04:10:06;9.30;99.90
5415;DHT22;2730;51.512;7.504;2023-04-22T04:12:33;9.30;99.90
5415;DHT22;2730;51.512;7.504;2023-04-22T04:15:01;9.30;99.90
5415;DHT22;2730;51.512;7.504;2023-04-22T04:17:28;9.40;99.90
5415;DHT22;2730;51.512;7.504;2023-04-22T04:19:55;9.40;99.90
5415;DHT22;2730;51.512;7.504;2023-04-22T04:22:22;9.40;99.90
5415;DHT22;2730;51.512;7.504;2023-04-22T04:24:49;9.40;99.90
5415;DHT22;2730;51.512;7.504;2023-04-22T04:27:16;9.40;99.90
5415;DHT22;2730;51.512;7.504;2023-04-22T04:29:43;9.40;99.90
5415;DHT22;2730;51.512;7.504;2023-04-22T04:32:11;9.40;99.90
5415;DHT22;2730;51.512;7.504;2023-04-22T04:34:38;9.40;99.90
5415;DHT22;2730;51.512;7.504;2023-04-22T04:37:06;9.40;99.90
5415;DHT22;2730;51.512;7.504;2023-04-22T04:39:33;9.40;99.90
5415;DHT22;2730;51.512;7.504;2023-04-22T04:42:00;9.40;99.90
5415;DHT22;2730;51.512;7.504;2023-04-22T04:44:27;9.40;99.90
5415;DHT22;2730;51.512;7.504;2023-04-22T04:46:56;9.40;99.90
5415;DHT22;2730;51.512;7.504;2023-04-22T04:49:24;9.50;99.90
5415;DHT22;2730;51.512;7.504;2023-04-22T04:51:51;9.50;99.90
5415;DHT22;2730;51.512;7.504;2023-04-22T04:54:18;9.50;99.90
5415;DHT22;2730;51.512;7.504;2023-04-22T04:56:44;9.60;99.90
5415;DHT22;2730;51.512;7.504;2023-04-22T04:59:11;9.60;99.90
5415;DHT22;2730;51.512;7.504;2023-04-22T05:01:38;9.70;99.90
5415;DHT22;2730;51.512;7.504;2023-04-22T05:04:05;9.70;99.90
5415;DHT22;2730;51.512;7.504;2023-04-22T05:06:33;9.70;99.90
5415;DHT22;2730;51.512;7.504;2023-04-22T05:09:00;9.70;99.90
5415;DHT22;2730;51.512;7.504;2023-04-22T05:11:27;9.70;99.90
5415;DHT22;2730;51.512;7.504;2023-04-22T05:13:55;9.80;99.90
5415;DHT22;2730;51.512;7.504;2023-04-22T05:16:21;9.80;99.90
5415;DHT22;2730;51.512;7.504;2023-04-22T05:18:48;9.90;99.90
5415;DHT22;2730;51.512;7.504;2023-04-22T05:21:15;9.90;99.90
5415;DHT22;2730;51.512;7.504;2023-04-22T05:23:43;10.00;99.90
5415;DHT22;2730;51.512;7.504;2023-04-22T05:26:10;10.00;99.90
5415;DHT22;2730;51.512;7.504;2023-04-22T05:28:37;10.10;99.90
5415;DHT22;2730;51.512;7.504;2023-04-22T05:31:04;10.10;99.90
5415;DHT22;2730;51.512;7.504;2023-04-22T05:33:31;10.10;99.90
5415;DHT22;2730;51.512;7.504;2023-04-22T05:35:58;10.20;99.90
5415;DHT22;2730;51.512;7.504;2023-04-22T05:38:24;10.20;99.90
5415;DHT22;2730;51.512;7.504;2023-04-22T05:40:53;10.20;99.90
5415;DHT22;2730;51.512;7.504;2023-04-22T05:43:19;10.20;99.90
5415;DHT22;2730;51.512;7.504;2023-04-22T05:45:46;10.30;99.90
5415;DHT22;2730;51.512;7.504;2023-04-22T05:48:13;10.30;99.90
5415;DHT22;2730;51.512;7.504;2023-04-22T05:50:40;10.40;99.90
5415;DHT22;2730;51.512;7.504;2023-04-22T05:53:07;10.40;99.90
5415;DHT22;2730;51.512;7.504;2023-04-22T05:55:33;10.50;99.90
5415;DHT22;2730;51.512;7.504;2023-04-22T05:58:02;10.60;99.90
5415;DHT22;2730;51.512;7.504;2023-04-22T06:00:29;10.70;99.90
5415;DHT22;2730;51.512;7.504;2023-04-22T06:02:55;10.80;99.90
5415;DHT22;2730;51.512;7.504;2023-04-22T06:05:22;10.90;99.90
5415;DHT22;2730;51.512;7.504;2023-04-22T06:07:49;11.00;99.90
5415;DHT22;2730;51.512;7.504;2023-04-22T06:10:16;11.10;99.90
5415;DHT22;2730;51.512;7.504;2023-04-22T06:12:43;11.30;99.90
5415;DHT22;2730;51.512;7.504;2023-04-22T06:15:11;11.40;99.90
5415;DHT22;2730;51.512;7.504;2023-04-22T06:17:38;11.60;99.90
5415;DHT22;2730;51.512;7.504;2023-04-22T06:20:06;11.80;99.90
5415;DHT22;2730;51.512;7.504;2023-04-22T06:22:33;12.00;99.90
5415;DHT22;2730;51.512;7.504;2023-04-22T06:25:00;12.10;99.90
5415;DHT22;2730;51.512;7.504;2023-04-22T06:27:26;12.30;99.90
5415;DHT22;2730;51.512;7.504;2023-04-22T06:29:53;12.50;99.90
5415;DHT22;2730;51.512;7.504;2023-04-22T06:32:21;12.70;99.90
5415;DHT22;2730;51.512;7.504;2023-04-22T06:34:48;12.90;99.90
5415;DHT22;2730;51.512;7.504;2023-04-22T06:37:15;13.10;99.90
5415;DHT22;2730;51.512;7.504;2023-04-22T06:39:42;13.30;99.90
5415;DHT22;2730;51.512;7.504;2023-04-22T06:42:08;13.30;99.90
5415;DHT22;2730;51.512;7.504;2023-04-22T06:44:35;13.40;99.90
5415;DHT22;2730;51.512;7.504;2023-04-22T06:47:02;13.50;99.90
5415;DHT22;2730;51.512;7.504;2023-04-22T06:49:30;13.70;68.20
5415;DHT22;2730;51.512;7.504;2023-04-22T06:51:57;14.00;52.80
5415;DHT22;2730;51.512;7.504;2023-04-22T06:54:24;14.30;1.00
5415;DHT22;2730;51.512;7.504;2023-04-22T06:56:50;14.60;1.00
5415;DHT22;2730;51.512;7.504;2023-04-22T06:59:17;14.80;1.00
5415;DHT22;2730;51.512;7.504;2023-04-22T07:01:44;15.20;1.00
5415;DHT22;2730;51.512;7.504;2023-04-22T07:04:11;15.50;1.00
5415;DHT22;2730;51.512;7.504;2023-04-22T07:06:39;15.80;1.00
5415;DHT22;2730;51.512;7.504;2023-04-22T07:09:05;16.30;99.90
5415;DHT22;2730;51.512;7.504;2023-04-22T07:11:32;16.80;99.90
5415;DHT22;2730;51.512;7.504;2023-04-22T07:13:59;17.30;1.00
5415;DHT22;2730;51.512;7.504;2023-04-22T07:16:26;17.60;1.00
5415;DHT22;2730;51.512;7.504;2023-04-22T07:18:53;17.50;99.90
5415;DHT22;2730;51.512;7.504;2023-04-22T07:21:19;17.50;99.90
5415;DHT22;2730;51.512;7.504;2023-04-22T07:23:48;17.80;99.90
5415;DHT22;2730;51.512;7.504;2023-04-22T07:26:15;17.80;79.80
5415;DHT22;2730;51.512;7.504;2023-04-22T07:28:41;17.60;17.50
5415;DHT22;2730;51.512;7.504;2023-04-22T07:31:08;17.60;99.90
5415;DHT22;2730;51.512;7.504;2023-04-22T07:33:35;17.30;99.90
5415;DHT22;2730;51.512;7.504;2023-04-22T07:36:02;17.20;99.90
5415;DHT22;2730;51.512;7.504;2023-04-22T07:38:29;17.70;1.00
5415;DHT22;2730;51.512;7.504;2023-04-22T07:40:57;18.00;1.00
5415;DHT22;2730;51.512;7.504;2023-04-22T07:43:24;19.40;99.90
5415;DHT22;2730;51.512;7.504;2023-04-22T07:45:50;20.60;1.00
5415;DHT22;2730;51.512;7.504;2023-04-22T07:48:17;22.10;99.90
5415;DHT22;2730;51.512;7.504;2023-04-22T07:50:44;23.50;95.30
5415;DHT22;2730;51.512;7.504;2023-04-22T07:53:11;24.50;1.00
5415;DHT22;2730;51.512;7.504;2023-04-22T07:55:39;24.80;99.90
5415;DHT22;2730;51.512;7.504;2023-04-22T07:58:08;24.20;99.90
5415;DHT22;2730;51.512;7.504;2023-04-22T08:00:34;24.10;1.00
5415;DHT22;2730;51.512;7.504;2023-04-22T08:03:01;24.70;99.90
5415;DHT22;2730;51.512;7.504;2023-04-22T08:05:28;24.80;99.90
5415;DHT22;2730;51.512;7.504;2023-04-22T08:07:55;25.30;99.90
5415;DHT22;2730;51.512;7.504;2023-04-22T08:10:22;25.20;99.90
5415;DHT22;2730;51.512;7.504;2023-04-22T08:12:49;25.40;99.90
5415;DHT22;2730;51.512;7.504;2023-04-22T08:15:17;25.70;99.90
5415;DHT22;2730;51.512;7.504;2023-04-22T08:17:44;25.70;99.90
5415;DHT22;2730;51.512;7.504;2023-04-22T08:20:11;26.10;99.90
5415;DHT22;2730;51.512;7.504;2023-04-22T08:22:39;26.10;99.90
5415;DHT22;2730;51.512;7.504;2023-04-22T08:25:08;25.50;99.90
5415;DHT22;2730;51.512;7.504;2023-04-22T08:27:35;25.20;99.90
5415;DHT22;2730;51.512;7.504;2023-04-22T08:30:03;24.60;99.90
5415;DHT22;2730;51.512;7.504;2023-04-22T08:32:32;24.10;99.90
5415;DHT22;2730;51.512;7.504;2023-04-22T08:34:58;23.90;99.90
5415;DHT22;2730;51.512;7.504;2023-04-22T08:37:26;24.00;99.90
5415;DHT22;2730;51.512;7.504;2023-04-22T08:39:52;24.50;99.90
5415;DHT22;2730;51.512;7.504;2023-04-22T08:42:19;24.80;99.90
5415;DHT22;2730;51.512;7.504;2023-04-22T08:44:47;24.70;99.90
5415;DHT22;2730;51.512;7.504;2023-04-22T08:47:15;25.20;99.90
5415;DHT22;2730;51.512;7.504;2023-04-22T08:49:45;25.00;99.90
5415;DHT22;2730;51.512;7.504;2023-04-22T08:52:12;25.00;99.90
5415;DHT22;2730;51.512;7.504;2023-04-22T08:54:40;25.00;99.90
5415;DHT22;2730;51.512;7.504;2023-04-22T08:57:07;24.80;99.70
5415;DHT22;2730;51.512;7.504;2023-04-22T08:59:36;24.30;99.90
5415;DHT22;2730;51.512;7.504;2023-04-22T09:02:04;24.50;99.90
5415;DHT22;2730;51.512;7.504;2023-04-22T09:04:31;24.30;99.90
5415;DHT22;2730;51.512;7.504;2023-04-22T09:06:59;24.60;99.90
5415;DHT22;2730;51.512;7.504;2023-04-22T09:09:27;24.80;99.90
5415;DHT22;2730;51.512;7.504;2023-04-22T09:11:56;25.00;99.90
5415;DHT22;2730;51.512;7.504;2023-04-22T09:14:23;25.00;99.90
5415;DHT22;2730;51.512;7.504;2023-04-22T09:16:51;25.00;99.90
5415;DHT22;2730;51.512;7.504;2023-04-22T09:19:20;25.20;99.90
5415;DHT22;2730;51.512;7.504;2023-04-22T09:21:49;25.40;99.90
5415;DHT22;2730;51.512;7.504;2023-04-22T09:24:17;25.70;99.90
5415;DHT22;2730;51.512;7.504;2023-04-22T09:26:45;25.70;97.10
5415;DHT22;2730;51.512;7.504;2023-04-22T09:29:14;25.40;95.60
5415;DHT22;2730;51.512;7.504;2023-04-22T09:31:41;25.10;99.90
5415;DHT22;2730;51.512;7.504;2023-04-22T09:34:08;24.60;99.90
5415;DHT22;2730;51.512;7.504;2023-04-22T09:36:35;24.30;99.90
5415;DHT22;2730;51.512;7.504;2023-04-22T09:39:04;24.20;99.90
5415;DHT22;2730;51.512;7.504;2023-04-22T09:41:34;23.90;99.90
5415;DHT22;2730;51.512;7.504;2023-04-22T09:44:13;23.90;99.90
5415;DHT22;2730;51.512;7.504;2023-04-22T09:46:41;24.30;99.90
5415;DHT22;2730;51.512;7.504;2023-04-22T09:49:09;24.90;99.90
5415;DHT22;2730;51.512;7.504;2023-04-22T09:51:40;24.90;99.90
5415;DHT22;2730;51.512;7.504;2023-04-22T09:54:08;25.20;99.90
5415;DHT22;2730;51.512;7.504;2023-04-22T09:56:42;25.50;99.90
5415;DHT22;2730;51.512;7.504;2023-04-22T09:59:09;25.70;92.10
5415;DHT22;2730;51.512;7.504;2023-04-22T10:01:36;25.70;90.90
5415;DHT22;2730;51.512;7.504;2023-04-22T10:04:05;25.80;78.20
5415;DHT22;2730;51.512;7.504;2023-04-22T10:06:32;26.30;47.40
5415;DHT22;2730;51.512;7.504;2023-04-22T10:08:59;26.60;39.40
5415;DHT22;2730;51.512;7.504;2023-04-22T10:11:26;26.40;6.00
5415;DHT22;2730;51.512;7.504;2023-04-22T10:13:54;26.20;4.00
5415;DHT22;2730;51.512;7.504;2023-04-22T10:16:22;26.00;9.40
5415;DHT22;2730;51.512;7.504;2023-04-22T10:18:51;26.10;21.60
5415;DHT22;2730;51.512;7.504;2023-04-22T10:21:21;26.30;10.90
5415;DHT22;2730;51.512;7.504;2023-04-22T10:23:49;26.00;12.60
5415;DHT22;2730;51.512;7.504;2023-04-22T10:26:37;25.70;2.80
5415;DHT22;2730;51.512;7.504;2023-04-22T10:29:06;26.00;1.00
5415;DHT22;2730;51.512;7.504;2023-04-22T10:31:36;26.10;7.80
5415;DHT22;2730;51.512;7.504;2023-04-22T10:34:10;26.10;1.00
5415;DHT22;2730;51.512;7.504;2023-04-22T10:36:57;25.80;1.00
5415;DHT22;2730;51.512;7.504;2023-04-22T10:39:24;26.00;1.00
5415;DHT22;2730;51.512;7.504;2023-04-22T10:41:54;26.20;1.00
5415;DHT22;2730;51.512;7.504;2023-04-22T10:44:23;26.10;1.00
5415;DHT22;2730;51.512;7.504;2023-04-22T10:46:59;26.20;1.90
5415;DHT22;2730;51.512;7.504;2023-04-22T10:49:28;26.60;1.00
5415;DHT22;2730;51.512;7.504;2023-04-22T10:51:56;27.00;1.00
5415;DHT22;2730;51.512;7.504;2023-04-22T10:57:30;26.70;1.00
5415;DHT22;2730;51.512;7.504;2023-04-22T11:03:14;26.00;1.00
5415;DHT22;2730;51.512;7.504;2023-04-22T11:05:42;25.60;22.70
5415;DHT22;2730;51.512;7.504;2023-04-22T11:08:18;25.40;36.40
5415;DHT22;2730;51.512;7.504;2023-04-22T11:10:49;25.20;70.60
5415;DHT22;2730;51.512;7.504;2023-04-22T11:13:17;25.00;89.70
5415;DHT22;2730;51.512;7.504;2023-04-22T11:15:48;24.90;98.40
5415;DHT22;2730;51.512;7.504;2023-04-22T11:18:18;24.80;94.90
5415;DHT22;2730;51.512;7.504;2023-04-22T11:20:45;24.70;99.90
5415;DHT22;2730;51.512;7.504;2023-04-22T11:23:18;24.60;99.90
5415;DHT22;2730;51.512;7.504;2023-04-22T11:25:45;24.40;99.90
5415;DHT22;2730;51.512;7.504;2023-04-22T11:28:12;24.60;99.90
5415;DHT22;2730;51.512;7.504;2023-04-22T11:30:39;24.30;99.90
5415;DHT22;2730;51.512;7.504;2023-04-22T11:33:07;24.00;99.90
5415;DHT22;2730;51.512;7.504;2023-04-22T11:35:34;23.70;99.90
5415;DHT22;2730;51.512;7.504;2023-04-22T11:38:03;23.40;99.90
5415;DHT22;2730;51.512;7.504;2023-04-22T11:40:31;23.20;99.90
5415;DHT22;2730;51.512;7.504;2023-04-22T11:43:00;23.10;99.90
5415;DHT22;2730;51.512;7.504;2023-04-22T11:45:29;23.20;99.90
5415;DHT22;2730;51.512;7.504;2023-04-22T11:47:57;23.20;99.90
5415;DHT22;2730;51.512;7.504;2023-04-22T11:50:27;23.10;99.90
5415;DHT22;2730;51.512;7.504;2023-04-22T11:52:56;23.10;99.90
5415;DHT22;2730;51.512;7.504;2023-04-22T11:55:25;23.20;99.90
5415;DHT22;2730;51.512;7.504;2023-04-22T11:57:56;23.40;99.90
5415;DHT22;2730;51.512;7.504;2023-04-22T12:00:27;23.80;99.90
5415;DHT22;2730;51.512;7.504;2023-04-22T12:02:55;23.90;99.90
5415;DHT22;2730;51.512;7.504;2023-04-22T12:05:34;23.90;99.90
5415;DHT22;2730;51.512;7.504;2023-04-22T12:08:01;24.10;99.90
5415;DHT22;2730;51.512;7.504;2023-04-22T12:10:28;24.30;99.90
5415;DHT22;2730;51.512;7.504;2023-04-22T12:12:55;24.30;99.90
5415;DHT22;2730;51.512;7.504;2023-04-22T12:15:22;24.30;99.90
5415;DHT22;2730;51.512;7.504;2023-04-22T12:17:49;24.30;99.90
5415;DHT22;2730;51.512;7.504;2023-04-22T12:20:16;24.10;99.90
5415;DHT22;2730;51.512;7.504;2023-04-22T12:22:44;24.00;99.90
5415;DHT22;2730;51.512;7.504;2023-04-22T12:25:16;23.80;99.90
5415;DHT22;2730;51.512;7.504;2023-04-22T12:27:43;23.70;99.90
5415;DHT22;2730;51.512;7.504;2023-04-22T12:30:12;23.70;99.90
5415;DHT22;2730;51.512;7.504;2023-04-22T12:32:39;23.50;99.90
5415;DHT22;2730;51.512;7.504;2023-04-22T12:35:06;23.50;99.90
5415;DHT22;2730;51.512;7.504;2023-04-22T12:37:34;23.50;99.90
5415;DHT22;2730;51.512;7.504;2023-04-22T12:40:02;23.70;99.90
5415;DHT22;2730;51.512;7.504;2023-04-22T12:42:31;23.70;99.90
5415;DHT22;2730;51.512;7.504;2023-04-22T12:44:57;23.70;99.90
5415;DHT22;2730;51.512;7.504;2023-04-22T12:47:24;23.60;99.90
5415;DHT22;2730;51.512;7.504;2023-04-22T12:49:51;23.60;99.90
5415;DHT22;2730;51.512;7.504;2023-04-22T12:52:18;23.50;99.90
5415;DHT22;2730;51.512;7.504;2023-04-22T12:54:44;23.40;99.90
5415;DHT22;2730;51.512;7.504;2023-04-22T12:57:13;23.50;99.90
5415;DHT22;2730;51.512;7.504;2023-04-22T12:59:39;23.40;99.90
5415;DHT22;2730;51.512;7.504;2023-04-22T13:02:06;23.30;99.90
5415;DHT22;2730;51.512;7.504;2023-04-22T13:04:33;23.00;1.00
5415;DHT22;2730;51.512;7.504;2023-04-22T13:07:00;22.90;99.90
5415;DHT22;2730;51.512;7.504;2023-04-22T13:09:26;22.80;1.00
5415;DHT22;2730;51.512;7.504;2023-04-22T13:11:53;22.80;1.00
5415;DHT22;2730;51.512;7.504;2023-04-22T13:14:21;22.70;1.00
5415;DHT22;2730;51.512;7.504;2023-04-22T13:16:48;22.50;1.00
5415;DHT22;2730;51.512;7.504;2023-04-22T13:19:15;22.40;1.00
5415;DHT22;2730;51.512;7.504;2023-04-22T13:21:42;22.50;1.00
5415;DHT22;2730;51.512;7.504;2023-04-22T13:24:09;22.70;1.00
5415;DHT22;2730;51.512;7.504;2023-04-22T13:26:36;22.80;1.00
5415;DHT22;2730;51.512;7.504;2023-04-22T13:29:04;23.00;1.00
5415;DHT22;2730;51.512;7.504;2023-04-22T13:31:37;23.10;1.00
5415;DHT22;2730;51.512;7.504;2023-04-22T13:34:04;23.30;99.90
5415;DHT22;2730;51.512;7.504;2023-04-22T13:36:30;23.20;99.90
5415;DHT22;2730;51.512;7.504;2023-04-22T13:38:57;23.10;1.00
5415;DHT22;2730;51.512;7.504;2023-04-22T13:41:24;23.00;1.00
5415;DHT22;2730;51.512;7.504;2023-04-22T13:43:51;22.80;1.00
5415;DHT22;2730;51.512;7.504;2023-04-22T13:46:18;22.70;1.00
5415;DHT22;2730;51.512;7.504;2023-04-22T13:48:47;22.50;1.00
5415;DHT22;2730;51.512;7.504;2023-04-22T13:51:14;22.50;1.00
5415;DHT22;2730;51.512;7.504;2023-04-22T13:53:41;22.50;1.00
5415;DHT22;2730;51.512;7.504;2023-04-22T13:56:07;22.70;1.00
5415;DHT22;2730;51.512;7.504;2023-04-22T13:58:34;22.80;1.00
5415;DHT22;2730;51.512;7.504;2023-04-22T14:01:01;22.60;1.00
5415;DHT22;2730;51.512;7.504;2023-04-22T14:03:28;22.60;1.00
5415;DHT22;2730;51.512;7.504;2023-04-22T14:05:57;22.50;1.00
5415;DHT22;2730;51.512;7.504;2023-04-22T14:08:25;22.30;1.00
5415;DHT22;2730;51.512;7.504;2023-04-22T14:10:53;22.40;1.00
5415;DHT22;2730;51.512;7.504;2023-04-22T14:13:19;22.40;1.00
5415;DHT22;2730;51.512;7.504;2023-04-22T14:15:48;22.40;1.00
5415;DHT22;2730;51.512;7.504;2023-04-22T14:18:15;22.30;1.00
5415;DHT22;2730;51.512;7.504;2023-04-22T14:20:41;22.20;1.00
5415;DHT22;2730;51.512;7.504;2023-04-22T14:23:11;22.10;1.00
5415;DHT22;2730;51.512;7.504;2023-04-22T14:25:37;21.90;1.00
5415;DHT22;2730;51.512;7.504;2023-04-22T14:28:04;21.80;1.00
5415;DHT22;2730;51.512;7.504;2023-04-22T14:30:31;21.70;1.00
5415;DHT22;2730;51.512;7.504;2023-04-22T14:32:58;21.70;1.00
5415;DHT22;2730;51.512;7.504;2023-04-22T14:35:25;21.70;1.00
5415;DHT22;2730;51.512;7.504;2023-04-22T14:37:52;21.60;23.30
5415;DHT22;2730;51.512;7.504;2023-04-22T14:40:20;21.50;99.90
5415;DHT22;2730;51.512;7.504;2023-04-22T14:42:50;21.40;99.90
5415;DHT22;2730;51.512;7.504;2023-04-22T14:45:17;21.40;99.90
5415;DHT22;2730;51.512;7.504;2023-04-22T14:47:44;21.20;1.00
5415;DHT22;2730;51.512;7.504;2023-04-22T14:50:11;21.10;1.00
5415;DHT22;2730;51.512;7.504;2023-04-22T14:52:37;21.10;1.00
5415;DHT22;2730;51.512;7.504;2023-04-22T14:55:05;20.90;1.00
5415;DHT22;2730;51.512;7.504;2023-04-22T14:57:33;20.70;49.70
5415;DHT22;2730;51.512;7.504;2023-04-22T14:59:59;20.20;14.60
5415;DHT22;2730;51.512;7.504;2023-04-22T15:02:26;19.80;99.90
5415;DHT22;2730;51.512;7.504;2023-04-22T15:04:53;19.30;1.00
5415;DHT22;2730;51.512;7.504;2023-04-22T15:07:20;18.80;1.00
5415;DHT22;2730;51.512;7.504;2023-04-22T15:09:47;18.40;1.00
5415;DHT22;2730;51.512;7.504;2023-04-22T15:12:13;18.30;16.80
5415;DHT22;2730;51.512;7.504;2023-04-22T15:14:42;18.20;78.30
5415;DHT22;2730;51.512;7.504;2023-04-22T15:17:08;18.00;73.30
5415;DHT22;2730;51.512;7.504;2023-04-22T15:19:35;17.90;99.90
5415;DHT22;2730;51.512;7.504;2023-04-22T15:22:02;18.00;99.90
5415;DHT22;2730;51.512;7.504;2023-04-22T15:24:29;18.00;99.90
5415;DHT22;2730;51.512;7.504;2023-04-22T15:26:56;17.90;99.90
5415;DHT22;2730;51.512;7.504;2023-04-22T15:29:23;17.90;97.00
5415;DHT22;2730;51.512;7.504;2023-04-22T15:31:51;17.90;98.90
5415;DHT22;2730;51.512;7.504;2023-04-22T15:34:18;17.90;99.90
5415;DHT22;2730;51.512;7.504;2023-04-22T15:36:46;17.80;99.90
5415;DHT22;2730;51.512;7.504;2023-04-22T15:39:12;17.80;99.90
5415;DHT22;2730;51.512;7.504;2023-04-22T15:41:39;17.70;99.90
5415;DHT22;2730;51.512;7.504;2023-04-22T15:44:08;17.70;99.90
5415;DHT22;2730;51.512;7.504;2023-04-22T15:46:35;17.60;99.90
5415;DHT22;2730;51.512;7.504;2023-04-22T15:49:03;17.60;99.90
5415;DHT22;2730;51.512;7.504;2023-04-22T15:51:30;17.50;99.90
5415;DHT22;2730;51.512;7.504;2023-04-22T15:53:57;17.40;99.90
5415;DHT22;2730;51.512;7.504;2023-04-22T15:56:24;17.30;99.90
5415;DHT22;2730;51.512;7.504;2023-04-22T15:58:51;17.30;99.90
5415;DHT22;2730;51.512;7.504;2023-04-22T16:01:18;17.30;99.90
5415;DHT22;2730;51.512;7.504;2023-04-22T16:03:45;17.30;99.90
5415;DHT22;2730;51.512;7.504;2023-04-22T16:06:13;17.30;99.90
5415;DHT22;2730;51.512;7.504;2023-04-22T16:08:40;17.20;99.90
5415;DHT22;2730;51.512;7.504;2023-04-22T16:11:08;17.20;99.90
5415;DHT22;2730;51.512;7.504;2023-04-22T16:13:35;17.10;99.90
5415;DHT22;2730;51.512;7.504;2023-04-22T16:16:03;17.00;99.90
5415;DHT22;2730;51.512;7.504;2023-04-22T16:18:30;16.90;99.90